Miller Field
KVTN : now visible

Airfield :











YOU CAN JOIN US ON...

 
LOGIN :

Register | Disclaimer

   EN    FR    IT 

 









Legend :    VFR   Marginal VFR   IFR   Intensive IFR   Very Intensive IFR
Visi :
Ceiling :
>= 8 km
>= 3000ft
5 to 8 km
1000 to 3000 ft
1500m to 5 km
500 to 1000 ft
800 to 1500m
200 to 500 ft
< 800m
< 200 ft
Symbols :   Thunderstorms  Fog  Heavy snow  Heavy precipitations  Wind > 20 kt






- Airport Elevation : 2596 ft


KVTN - Miller Field

CURRENT METAR :
  • 150152Z AUTO 10007KT 7SM BKN029 OVC034 M07/M10 A2988 RMK AO2 SLP156 T10671100

EXPIRED METARs :
  • 150141Z AUTO 10008KT 7SM BKN027 OVC034 M07/M10 A2988 RMK AO2 T10671100
  • 150052Z AUTO 08009KT 7SM SCT027 OVC034 M07/M10 A2988 RMK AO2 SLP156 T10671100
  • 142352Z AUTO 07010KT 7SM FEW025 OVC033 M06/M09 A2987 RMK AO2 SLP150 T10611094 11044 21072 50000

TAF KVTN
Valid from the 15 at 02:00 until the 16 at 00:00 UTC


150206Z 1502/1524 10007KT P6SM BKN029 OVC035
TEMPO 1502/1505 2SM -SN
FM150500 11007KT 2SM -SN OVC010
FM151000 15005KT 5SM -SN OVC010
FM151500 24003KT P6SM OVC020
FM151900 28006KT P6SM SCT050



MET'MAP, your aeronautical weather chart ! - Copyright ORBIFLY December 2007 - Disclaimer

ORBIFLY MET'MAP TEAM :

Programming & Development : Alexandra Zaïnal
Concept & original design : Baudouin d'Aumeries
Assistance for programming : Marc-Olivier Méhu
Technical & hardware support : Manuel Goepfert

Contact : metmap@orbifly.com




SOURCES & CREDITS :

   NOAA       Earth
Advisory